Time;durP1;ratioP1;P1;durP2;ratioP2;P2;SDS_P1;SDS_P2;PMS_P1;PMS_P2;Temp;Humidity;BMP_temperature;BMP_pressure;BME280_temperature;BME280_humidity;BME280_pressure;Samples;Min_cycle;Max_cycle;Signal;HPM_P1;HPM_P2
2022/01/07 00:01:52;;;;;;;12.63;11.83;;;;;;;2.20;79.09;92804.69;5047692;28;20282;-82
2022/01/07 00:04:18;;;;;;;11.20;10.60;;;;;;;2.31;78.42;92803.09;5045295;28;20717;-81
2022/01/07 00:06:44;;;;;;;12.17;11.43;;;;;;;2.30;78.62;92799.78;5045617;28;20323;-82
2022/01/07 00:09:09;;;;;;;11.80;11.10;;;;;;;2.30;78.11;92794.63;5028258;28;20340;-81
2022/01/07 00:11:35;;;;;;;12.03;11.03;;;;;;;2.26;78.68;92792.69;5048060;28;20240;-81
2022/01/07 00:14:00;;;;;;;11.90;11.10;;;;;;;2.32;78.79;92796.97;5049371;28;20170;-83
2022/01/07 00:16:26;;;;;;;12.17;11.37;;;;;;;2.30;78.21;92788.69;5048459;28;20238;-81
2022/01/07 00:18:51;;;;;;;11.33;10.70;;;;;;;2.23;78.36;92793.13;5049574;28;20201;-80
2022/01/07 00:21:17;;;;;;;11.97;11.20;;;;;;;2.23;78.13;92780.25;5049591;28;20716;-80
2022/01/07 00:23:43;;;;;;;11.57;10.97;;;;;;;2.05;77.92;92768.28;5045101;28;20268;-80
2022/01/07 00:26:08;;;;;;;11.17;10.00;;;;;;;2.26;77.76;92810.72;5048502;28;20222;-80
2022/01/07 00:28:34;;;;;;;10.40;9.90;;;;;;;2.11;78.31;92806.03;5026779;28;20863;-79
2022/01/07 00:30:59;;;;;;;12.13;11.43;;;;;;;2.26;78.43;92815.88;5028914;28;20268;-80
2022/01/07 00:33:25;;;;;;;11.13;10.43;;;;;;;2.14;78.56;92805.56;5049838;28;20186;-80
2022/01/07 00:35:52;;;;;;;11.87;11.17;;;;;;;2.24;78.51;92810.19;5047758;28;20234;-80
2022/01/07 00:38:18;;;;;;;10.80;10.20;;;;;;;1.94;77.93;92791.44;5047755;28;20192;-80
2022/01/07 00:40:43;;;;;;;11.00;10.30;;;;;;;2.11;77.99;92798.28;5049879;28;20766;-80
2022/01/07 00:43:09;;;;;;;11.27;10.57;;;;;;;2.07;78.27;92804.13;5046300;28;20728;-81
2022/01/07 00:45:35;;;;;;;11.67;10.97;;;;;;;2.32;77.32;92809.84;5048363;28;20229;-81
2022/01/07 00:48:01;;;;;;;12.27;11.63;;;;;;;2.16;77.82;92813.06;5048288;28;20197;-82
2022/01/07 00:50:29;;;;;;;11.10;10.47;;;;;;;2.31;77.15;92821.13;5047234;28;20215;-80
2022/01/07 00:52:54;;;;;;;12.00;11.33;;;;;;;2.24;77.54;92823.06;5049639;28;20214;-81
2022/01/07 00:55:20;;;;;;;11.73;11.03;;;;;;;2.16;77.62;92816.44;5046380;28;20206;-81
2022/01/07 00:57:47;;;;;;;11.27;10.50;;;;;;;2.17;77.02;92810.28;5048587;28;20205;-82
2022/01/07 01:00:15;;;;;;;11.47;10.77;;;;;;;2.27;77.16;92832.91;5049826;28;20197;-81
2022/01/07 01:02:41;;;;;;;10.97;10.37;;;;;;;2.06;77.22;92798.16;5048210;28;20279;-80
2022/01/07 01:05:10;;;;;;;11.90;11.20;;;;;;;2.17;77.46;92832.66;5048734;28;20191;-79
2022/01/07 01:07:35;;;;;;;11.43;10.73;;;;;;;2.29;77.30;92843.78;5048474;28;20269;-80
2022/01/07 01:10:04;;;;;;;10.80;10.13;;;;;;;2.28;76.97;92847.34;5045027;28;20178;-81
2022/01/07 01:12:29;;;;;;;11.77;11.17;;;;;;;2.16;77.92;92841.41;5047913;28;20356;-80
2022/01/07 01:14:54;;;;;;;10.93;10.13;;;;;;;1.89;78.27;92817.84;5044717;28;20197;-81
2022/01/07 01:17:20;;;;;;;11.50;10.87;;;;;;;1.91;78.07;92826.13;5047400;28;20231;-81
2022/01/07 01:19:45;;;;;;;10.67;9.97;;;;;;;2.15;77.83;92832.88;5049826;28;20263;-81
2022/01/07 01:22:11;;;;;;;11.77;11.17;;;;;;;2.17;77.82;92846.31;5027597;28;20276;-80
2022/01/07 01:24:36;;;;;;;12.07;11.17;;;;;;;2.09;78.13;92840.69;5048538;28;20198;-80
2022/01/07 01:27:02;;;;;;;11.27;10.57;;;;;;;2.13;77.76;92844.41;5048644;28;20226;-81
2022/01/07 01:29:28;;;;;;;11.07;10.27;;;;;;;2.06;77.43;92838.56;5044436;28;20190;-81
2022/01/07 01:31:53;;;;;;;11.60;10.63;;;;;;;2.04;77.56;92825.16;5030736;28;20226;-81
2022/01/07 01:34:19;;;;;;;11.20;10.50;;;;;;;2.22;77.81;92843.88;5046748;28;20199;-81
2022/01/07 01:36:45;;;;;;;11.27;10.53;;;;;;;2.17;77.14;92840.38;5045246;28;20238;-80
2022/01/07 01:39:12;;;;;;;11.30;10.70;;;;;;;2.06;78.45;92836.00;5048449;28;20205;-80
2022/01/07 01:41:38;;;;;;;11.90;11.20;;;;;;;2.11;77.60;92836.91;5045037;28;20223;-79
2022/01/07 01:44:04;;;;;;;11.23;10.63;;;;;;;2.16;77.25;92833.69;5048430;28;20209;-80
2022/01/07 01:46:29;;;;;;;11.70;10.90;;;;;;;2.35;76.66;92842.88;5046899;28;20225;-80
2022/01/07 01:48:55;;;;;;;12.13;11.33;;;;;;;2.26;76.86;92836.47;5046176;28;20241;-79
2022/01/07 01:51:20;;;;;;;11.17;10.47;;;;;;;2.20;77.05;92832.22;5048332;28;20240;-78
2022/01/07 01:53:46;;;;;;;13.63;12.63;;;;;;;2.12;76.75;92828.19;5045929;28;20197;-78
2022/01/07 01:56:11;;;;;;;11.30;10.70;;;;;;;2.09;77.47;92828.63;5045579;28;20237;-78
2022/01/07 01:58:37;;;;;;;12.00;11.07;;;;;;;1.96;77.58;92808.22;5047254;28;20217;-78
2022/01/07 02:01:03;;;;;;;12.57;11.77;;;;;;;2.16;77.33;92829.31;5043533;28;20241;-79
2022/01/07 02:03:28;;;;;;;11.83;11.20;;;;;;;2.26;77.46;92828.75;5048104;28;20191;-79
2022/01/07 02:05:54;;;;;;;12.03;11.23;;;;;;;1.92;77.37;92814.81;5046523;28;20225;-78
2022/01/07 02:08:20;;;;;;;12.53;11.43;;;;;;;1.88;78.00;92823.22;5045525;28;20217;-79
2022/01/07 02:10:45;;;;;;;12.30;11.60;;;;;;;1.89;77.85;92801.59;5047417;28;20236;-79
2022/01/07 02:13:11;;;;;;;11.63;10.93;;;;;;;2.19;76.68;92830.66;5045865;28;20233;-79
2022/01/07 02:15:37;;;;;;;11.97;11.17;;;;;;;2.09;77.74;92843.28;5049628;28;20236;-78
2022/01/07 02:18:03;;;;;;;12.13;11.43;;;;;;;2.08;77.29;92816.75;5051337;28;20193;-79
2022/01/07 02:20:29;;;;;;;11.53;10.73;;;;;;;2.17;77.04;92827.50;5049523;28;20200;-79
2022/01/07 02:22:57;;;;;;;13.03;12.33;;;;;;;2.09;78.59;92853.56;5051935;28;20222;-80
2022/01/07 02:25:22;;;;;;;11.30;10.53;;;;;;;1.73;77.76;92802.25;5049768;28;20200;-78
2022/01/07 02:27:49;;;;;;;12.40;11.60;;;;;;;1.97;77.52;92834.75;5049523;28;21789;-78
2022/01/07 02:30:24;;;;;;;11.83;10.93;;;;;;;2.12;77.25;92840.28;5050993;28;20200;-79
2022/01/07 02:32:50;;;;;;;10.90;10.20;;;;;;;2.08;78.11;92852.00;5050066;28;20232;-80
2022/01/07 02:35:17;;;;;;;11.80;11.10;;;;;;;2.01;77.75;92835.91;5048450;28;20190;-78
2022/01/07 02:37:43;;;;;;;12.63;11.80;;;;;;;2.25;77.21;92858.09;5050251;28;20246;-79
2022/01/07 02:40:09;;;;;;;11.63;10.93;;;;;;;2.18;77.62;92857.41;5046487;28;20197;-78
2022/01/07 02:42:35;;;;;;;11.93;11.03;;;;;;;2.06;77.48;92854.03;5049616;28;20253;-79
2022/01/07 02:45:01;;;;;;;12.30;11.53;;;;;;;2.17;77.04;92850.69;5049149;28;20174;-78
2022/01/07 02:47:32;;;;;;;12.63;11.93;;;;;;;2.15;77.55;92863.78;5047982;28;20289;-79
2022/01/07 02:50:04;;;;;;;11.90;11.10;;;;;;;2.14;77.77;92874.31;5052990;28;20216;-79
2022/01/07 02:52:30;;;;;;;13.10;12.23;;;;;;;2.16;77.19;92869.72;5049477;28;20253;-78
2022/01/07 02:54:55;;;;;;;12.40;11.70;;;;;;;1.93;77.54;92874.81;5049684;28;20241;-78
2022/01/07 02:57:21;;;;;;;12.53;11.73;;;;;;;1.79;77.74;92847.69;5051775;28;20258;-79
2022/01/07 02:59:46;;;;;;;11.67;10.87;;;;;;;1.97;78.00;92868.22;5047257;28;20210;-78
2022/01/07 03:02:11;;;;;;;12.43;11.53;;;;;;;1.87;77.48;92865.41;5032724;28;20249;-79
2022/01/07 03:04:37;;;;;;;12.10;11.27;;;;;;;1.83;77.59;92853.97;5050569;28;20236;-79
2022/01/07 03:07:02;;;;;;;12.23;11.33;;;;;;;1.96;77.87;92880.28;5049831;28;20226;-79
2022/01/07 03:09:29;;;;;;;12.13;11.33;;;;;;;1.97;77.48;92873.38;5049854;28;20220;-78
2022/01/07 03:11:55;;;;;;;12.97;12.00;;;;;;;2.09;76.92;92866.44;5049947;28;20233;-79
2022/01/07 03:14:20;;;;;;;11.90;10.90;;;;;;;2.12;76.42;92868.63;5049012;28;20773;-77
2022/01/07 03:16:46;;;;;;;12.80;12.10;;;;;;;1.96;77.01;92864.09;5051105;28;20222;-78
2022/01/07 03:19:12;;;;;;;12.70;11.47;;;;;;;1.98;76.22;92837.09;5050560;28;20194;-78
2022/01/07 03:21:37;;;;;;;12.53;11.57;;;;;;;2.00;76.39;92858.28;5050528;28;20296;-78
2022/01/07 03:24:03;;;;;;;12.77;11.87;;;;;;;2.01;76.05;92866.78;5051401;28;20190;-78
2022/01/07 03:26:28;;;;;;;12.47;11.67;;;;;;;2.24;75.93;92884.84;5046965;28;20228;-78
2022/01/07 03:28:55;;;;;;;11.87;11.03;;;;;;;2.04;76.88;92882.56;5049984;28;20278;-79
2022/01/07 03:31:21;;;;;;;12.40;11.60;;;;;;;1.54;77.15;92794.59;5034185;28;20226;-75
2022/01/07 03:33:46;;;;;;;13.53;12.63;;;;;;;2.00;76.33;92855.69;5046723;28;20194;-80
2022/01/07 03:36:12;;;;;;;12.83;11.93;;;;;;;2.35;75.62;92889.25;5048689;28;20263;-80
2022/01/07 03:38:37;;;;;;;12.97;12.13;;;;;;;2.20;76.28;92868.25;5049360;28;20194;-80
2022/01/07 03:41:03;;;;;;;12.87;11.97;;;;;;;2.15;76.27;92873.31;5049101;28;20222;-80
2022/01/07 03:43:28;;;;;;;13.57;12.67;;;;;;;2.11;76.58;92890.19;5050568;28;20268;-80
2022/01/07 03:45:54;;;;;;;13.53;12.50;;;;;;;2.09;77.28;92899.91;5049611;28;20229;-80
2022/01/07 03:48:19;;;;;;;11.70;10.87;;;;;;;2.18;76.23;92896.03;5051862;28;20221;-82
2022/01/07 03:50:45;;;;;;;12.00;11.30;;;;;;;1.87;76.63;92891.16;5047787;28;20233;-79
2022/01/07 03:53:10;;;;;;;13.13;12.23;;;;;;;1.63;77.19;92849.88;5049304;28;20218;-85
2022/01/07 03:55:36;;;;;;;12.37;11.53;;;;;;;1.75;77.17;92892.88;5030547;28;20295;-83
2022/01/07 03:58:02;;;;;;;12.70;11.90;;;;;;;1.98;77.57;92914.34;5049880;28;20217;-83
2022/01/07 04:00:34;;;;;;;12.90;12.07;;;;;;;1.64;76.89;92860.97;5030779;28;20175;-83
2022/01/07 04:03:03;;;;;;;11.40;10.63;;;;;;;2.03;76.79;92908.53;5048526;28;20182;-82
2022/01/07 04:05:28;;;;;;;11.40;10.60;;;;;;;1.91;76.39;92876.81;5031284;28;20192;-83
2022/01/07 04:07:54;;;;;;;12.00;11.30;;;;;;;2.13;76.27;92913.94;5050419;28;20191;-82
2022/01/07 04:10:20;;;;;;;13.00;12.10;;;;;;;2.05;78.24;92919.41;5048067;28;20236;-82
2022/01/07 04:12:45;;;;;;;12.07;11.27;;;;;;;1.68;77.05;92862.88;5045955;28;20228;-82
2022/01/07 04:15:11;;;;;;;12.83;11.80;;;;;;;1.64;76.86;92872.03;5049494;28;20193;-82
2022/01/07 04:17:42;;;;;;;11.63;10.90;;;;;;;2.20;76.51;92905.09;5047859;28;20198;-82
2022/01/07 04:20:10;;;;;;;13.33;12.43;;;;;;;1.89;74.97;92838.44;5048972;28;20190;-83
2022/01/07 04:22:36;;;;;;;13.33;12.43;;;;;;;2.48;74.74;92927.66;5047709;28;20237;-81
2022/01/07 04:25:06;;;;;;;11.93;11.13;;;;;;;2.46;74.77;92927.91;5049183;28;20190;-81
2022/01/07 04:27:32;;;;;;;12.67;11.87;;;;;;;1.91;74.85;92857.03;5049469;28;20273;-82
2022/01/07 04:29:57;;;;;;;13.10;12.20;;;;;;;2.17;75.33;92912.47;5029372;28;20997;-81
2022/01/07 04:32:23;;;;;;;13.50;12.53;;;;;;;1.77;76.67;92886.53;5047861;28;20284;-82
2022/01/07 04:34:49;;;;;;;13.53;12.63;;;;;;;1.92;77.36;92932.44;5047510;28;20208;-83
2022/01/07 04:40:05;;;;;;;12.10;11.30;;;;;;;1.52;76.29;92860.94;5002522;28;20802;-84
2022/01/07 04:42:30;;;;;;;13.33;12.43;;;;;;;1.92;77.32;92945.31;5008865;28;20257;-79
2022/01/07 04:44:59;;;;;;;12.13;11.33;;;;;;;1.69;78.08;92935.72;5006671;28;20184;-80
2022/01/07 04:47:25;;;;;;;15.20;14.10;;;;;;;1.80;77.57;92929.03;5009081;28;20279;-79
2022/01/07 04:49:50;;;;;;;13.63;12.80;;;;;;;2.03;77.35;92947.94;5008881;28;20199;-75
2022/01/07 04:52:17;;;;;;;13.40;12.47;;;;;;;2.32;76.72;92947.13;5009622;28;20231;-78
2022/01/07 04:54:44;;;;;;;12.93;12.03;;;;;;;2.22;76.48;92952.03;5008801;28;20187;-77
2022/01/07 04:57:09;;;;;;;12.90;12.07;;;;;;;2.04;76.91;92953.88;5006675;28;20223;-78
2022/01/07 04:59:35;;;;;;;16.47;14.80;;;;;;;2.07;76.27;92930.28;5009250;28;20191;-76
2022/01/07 05:02:00;;;;;;;14.80;13.50;;;;;;;2.16;77.25;92954.69;5005882;28;20231;-77
2022/01/07 05:04:26;;;;;;;14.50;13.40;;;;;;;2.25;76.55;92961.91;5005897;28;20293;-77
2022/01/07 05:06:52;;;;;;;15.13;14.03;;;;;;;1.98;77.16;92957.34;5007892;28;20291;-78
2022/01/07 05:09:18;;;;;;;13.63;12.63;;;;;;;2.16;76.68;92959.84;5024984;28;20192;-78
2022/01/07 05:11:48;;;;;;;13.87;12.77;;;;;;;2.10;76.98;92969.22;5002401;28;20257;-77
2022/01/07 05:14:14;;;;;;;13.80;12.70;;;;;;;1.66;78.05;92931.00;5006889;28;20196;-76
2022/01/07 05:16:40;;;;;;;13.60;12.50;;;;;;;2.10;76.98;92966.66;5008862;28;20726;-80
2022/01/07 05:19:06;;;;;;;15.10;13.90;;;;;;;1.85;78.19;92960.06;5007690;28;20270;-76
2022/01/07 05:21:32;;;;;;;16.33;14.97;;;;;;;2.07;80.61;92971.47;5006136;28;20294;-76
2022/01/07 05:23:57;;;;;;;13.60;12.60;;;;;;;1.93;77.68;92968.25;5008546;28;20199;-78
2022/01/07 05:26:23;;;;;;;15.83;14.57;;;;;;;2.05;77.70;92968.31;5007260;28;20219;-77
2022/01/07 05:28:50;;;;;;;15.23;13.90;;;;;;;1.92;77.48;92945.31;5009980;28;20210;-77
2022/01/07 05:31:17;;;;;;;15.73;14.43;;;;;;;1.87;78.12;92958.84;5007981;28;20282;-75
2022/01/07 05:33:42;;;;;;;14.73;13.57;;;;;;;1.91;78.39;92970.28;5008606;28;20195;-79
2022/01/07 05:36:08;;;;;;;15.67;14.23;;;;;;;2.44;80.00;92975.50;5007684;28;20258;-86
2022/01/07 05:38:33;;;;;;;14.40;13.17;;;;;;;1.90;78.57;92955.06;5008286;28;20211;-83
2022/01/07 05:40:59;;;;;;;15.47;14.20;;;;;;;2.00;79.84;92963.81;5008205;28;20215;-82
2022/01/07 05:43:24;;;;;;;16.23;14.80;;;;;;;2.22;79.28;92972.66;5021459;28;20214;-81
2022/01/07 05:45:50;;;;;;;15.03;13.83;;;;;;;2.23;77.83;92953.59;5007558;28;20235;-82
2022/01/07 05:48:15;;;;;;;15.97;14.60;;;;;;;2.53;77.04;92969.03;5008687;28;20183;-80
2022/01/07 05:50:43;;;;;;;15.43;13.90;;;;;;;2.29;77.85;92970.75;5004746;28;20326;-76
2022/01/07 05:53:10;;;;;;;17.07;15.77;;;;;;;2.33;77.11;92971.09;5008188;28;20258;-77
2022/01/07 05:55:35;;;;;;;17.03;15.53;;;;;;;2.24;77.43;92980.16;5007982;28;20246;-78
2022/01/07 05:58:01;;;;;;;16.20;14.73;;;;;;;2.36;76.68;92975.81;5006204;28;20183;-74
2022/01/07 06:00:26;;;;;;;16.00;14.33;;;;;;;2.37;76.37;92959.34;5007082;28;20187;-74
2022/01/07 06:02:51;;;;;;;15.37;14.07;;;;;;;2.13;78.08;92968.00;5006814;28;20206;-74
2022/01/07 06:05:17;;;;;;;15.77;14.67;;;;;;;2.38;76.96;92987.47;5006165;28;20171;-75
2022/01/07 06:07:42;;;;;;;16.17;14.70;;;;;;;2.41;77.33;92986.25;5005660;28;20183;-74
2022/01/07 06:10:08;;;;;;;15.57;14.00;;;;;;;2.18;78.00;92981.03;5006138;28;20179;-78
2022/01/07 06:12:34;;;;;;;16.20;14.73;;;;;;;2.06;78.82;92987.91;5006182;28;20223;-77
2022/01/07 06:14:59;;;;;;;15.93;14.43;;;;;;;1.91;78.20;92984.94;5006900;28;20198;-78
2022/01/07 06:17:25;;;;;;;15.73;14.33;;;;;;;1.84;79.17;92984.25;5007823;28;20227;-76
2022/01/07 06:19:51;;;;;;;15.17;14.00;;;;;;;1.94;79.20;92974.19;5006591;28;20219;-74
2022/01/07 06:22:16;;;;;;;16.53;15.23;;;;;;;2.14;78.85;92992.75;5007115;28;20235;-80
2022/01/07 06:24:42;;;;;;;16.37;14.77;;;;;;;1.91;80.46;92970.28;5023204;28;20218;-73
2022/01/07 06:27:08;;;;;;;16.07;14.60;;;;;;;1.84;79.32;92989.38;5007175;28;20219;-79
2022/01/07 06:29:33;;;;;;;16.20;14.80;;;;;;;2.16;78.37;92988.19;5007426;28;20206;-78
2022/01/07 06:31:58;;;;;;;19.57;16.23;;;;;;;1.76;78.18;92974.25;5006780;28;20270;-78
2022/01/07 06:34:24;;;;;;;17.20;15.60;;;;;;;2.15;78.43;93014.94;5008026;28;20251;-76
2022/01/07 06:36:50;;;;;;;18.50;16.70;;;;;;;2.15;77.99;92986.63;5005866;28;20242;-80
2022/01/07 06:39:18;;;;;;;17.57;16.07;;;;;;;2.51;76.88;93007.09;5007092;28;20239;-78
2022/01/07 06:41:46;;;;;;;17.07;15.53;;;;;;;2.46;76.32;92984.56;5005031;28;20239;-79
2022/01/07 06:44:13;;;;;;;16.40;14.97;;;;;;;2.77;76.30;93017.03;5006196;28;20203;-80
2022/01/07 06:46:39;;;;;;;16.47;15.00;;;;;;;2.68;80.26;92990.00;5007212;28;20230;-86
2022/01/07 06:49:04;;;;;;;18.50;16.07;;;;;;;2.80;76.80;93014.03;5005511;28;20191;-84
2022/01/07 06:51:31;;;;;;;16.23;14.67;;;;;;;2.79;75.67;93018.38;5007811;28;20216;-84
2022/01/07 06:53:58;;;;;;;15.60;14.33;;;;;;;2.63;75.66;92997.63;5008082;28;20219;-85
2022/01/07 06:56:23;;;;;;;16.13;14.63;;;;;;;2.95;75.09;93029.84;5006985;28;20220;-82
2022/01/07 06:58:49;;;;;;;17.17;15.67;;;;;;;2.57;76.82;93026.84;5006491;28;20190;-84
2022/01/07 07:01:14;;;;;;;16.87;15.37;;;;;;;2.77;75.64;93020.38;5006034;28;20312;-84
2022/01/07 07:03:40;;;;;;;19.30;17.47;;;;;;;2.56;75.50;92995.16;5010388;28;20191;-85
2022/01/07 07:06:06;;;;;;;22.53;19.27;;;;;;;2.70;76.35;93022.28;5010612;28;20274;-85
2022/01/07 07:08:32;;;;;;;17.60;15.97;;;;;;;2.83;75.51;93011.00;5010320;28;20192;-84
2022/01/07 07:10:57;;;;;;;17.53;15.93;;;;;;;3.15;74.38;93025.16;5011771;28;20222;-85
2022/01/07 07:13:23;;;;;;;18.63;16.87;;;;;;;3.16;74.43;92996.56;5010524;28;20250;-85
2022/01/07 07:15:49;;;;;;;18.30;16.60;;;;;;;3.04;73.88;93015.63;5011986;28;20215;-84
2022/01/07 07:18:14;;;;;;;19.73;16.43;;;;;;;2.92;74.23;92994.19;5010470;28;20246;-84
2022/01/07 07:20:40;;;;;;;19.33;17.30;;;;;;;2.77;75.17;93014.47;5010338;28;20279;-85
2022/01/07 07:23:06;;;;;;;20.47;18.57;;;;;;;2.83;75.11;93011.78;5012123;28;20195;-85
2022/01/07 07:25:31;;;;;;;18.23;16.57;;;;;;;2.66;75.66;92992.03;5009351;28;20241;-86
2022/01/07 07:27:57;;;;;;;16.57;15.20;;;;;;;2.63;75.67;93005.34;5009203;28;21103;-87
2022/01/07 07:30:23;;;;;;;16.87;15.23;;;;;;;2.62;75.87;92998.63;5010523;28;20247;-85
2022/01/07 07:32:51;;;;;;;16.83;15.33;;;;;;;2.95;75.51;93015.16;5011058;28;20233;-86
2022/01/07 07:37:46;;;;;;;16.47;15.07;;;;;;;3.09;74.92;92990.75;5010258;28;20226;-85
2022/01/07 07:40:12;;;;;;;16.43;14.93;;;;;;;2.88;73.35;92955.19;5011120;28;20227;-81
2022/01/07 07:42:38;;;;;;;16.73;15.23;;;;;;;3.04;74.67;93031.09;5012015;28;20213;-87
2022/01/07 07:45:05;;;;;;;14.87;13.67;;;;;;;3.05;74.51;93019.78;5009388;28;20192;-84
2022/01/07 07:47:33;;;;;;;15.23;13.60;;;;;;;3.04;74.99;93023.34;5011190;28;20247;-86
2022/01/07 07:49:59;;;;;;;15.87;14.23;;;;;;;2.87;75.28;93012.91;5026035;28;20194;-86
2022/01/07 07:52:24;;;;;;;16.17;14.70;;;;;;;3.23;74.23;93022.25;5010381;28;20251;-86
2022/01/07 07:54:50;;;;;;;16.70;15.27;;;;;;;3.31;73.40;93014.94;5008881;28;20191;-84
2022/01/07 07:57:15;;;;;;;17.23;15.53;;;;;;;3.27;74.00;93028.53;5008816;28;20254;-87
2022/01/07 07:59:41;;;;;;;17.83;16.03;;;;;;;3.10;74.71;93028.41;5009407;28;20200;-87
2022/01/07 08:02:09;;;;;;;16.07;14.57;;;;;;;3.35;73.09;93033.34;5010401;28;20221;-87
2022/01/07 08:04:37;;;;;;;18.07;16.23;;;;;;;3.16;72.67;93006.09;5008586;28;20198;-87
2022/01/07 08:07:03;;;;;;;18.93;17.03;;;;;;;3.57;71.93;93031.00;5011062;28;20254;-86
2022/01/07 08:09:32;;;;;;;18.17;16.30;;;;;;;3.36;73.45;93032.38;5008214;28;20187;-86
2022/01/07 08:12:05;;;;;;;19.80;17.03;;;;;;;3.62;72.81;93031.09;5007228;28;20322;-85
2022/01/07 08:17:14;;;;;;;17.17;15.67;;;;;;;3.54;71.46;93018.53;5009830;28;20226;-85
2022/01/07 08:19:40;;;;;;;23.10;16.70;;;;;;;3.37;72.58;93018.44;5009619;28;22036;-85
2022/01/07 08:22:06;;;;;;;17.73;16.23;;;;;;;3.33;71.92;93032.81;5009706;28;20697;-86
2022/01/07 08:24:31;;;;;;;24.17;22.00;;;;;;;3.47;71.43;93026.38;5010040;28;20238;-86
2022/01/07 08:26:57;;;;;;;19.63;17.13;;;;;;;3.76;70.77;93022.91;5009424;28;20231;-86
2022/01/07 08:29:25;;;;;;;18.50;16.80;;;;;;;3.83;71.05;93012.47;5009347;28;20247;-86
2022/01/07 08:37:01;;;;;;;22.33;19.20;;;;;;;3.79;70.65;93014.69;5008208;28;20250;-86
2022/01/07 08:39:27;;;;;;;24.73;22.17;;;;;;;3.54;71.38;93023.69;5008898;28;20254;-87
2022/01/07 08:41:53;;;;;;;19.77;17.93;;;;;;;3.91;71.16;93014.66;5009358;28;20239;-85
2022/01/07 08:44:20;;;;;;;21.90;19.50;;;;;;;3.69;70.80;93019.66;5008038;28;20284;-86
2022/01/07 08:46:45;;;;;;;19.17;17.23;;;;;;;3.67;70.64;93019.09;5008359;28;20216;-84
2022/01/07 08:49:11;;;;;;;22.17;18.37;;;;;;;3.67;70.89;93013.94;5010312;28;20195;-85
2022/01/07 08:51:36;;;;;;;20.30;17.27;;;;;;;3.36;71.15;92998.03;5008949;28;20249;-86
2022/01/07 08:54:02;;;;;;;19.67;17.67;;;;;;;3.59;70.59;93006.53;5008625;28;20223;-86
2022/01/07 08:56:28;;;;;;;19.20;17.23;;;;;;;3.87;70.25;93009.19;5007067;28;20218;-86
2022/01/07 08:58:55;;;;;;;22.07;18.87;;;;;;;3.71;71.15;93009.09;5009622;28;20215;-87
2022/01/07 09:01:22;;;;;;;19.73;17.60;;;;;;;3.85;69.92;93006.03;5009408;28;20234;-87
2022/01/07 09:03:47;;;;;;;27.47;20.60;;;;;;;3.67;70.50;92998.47;5008874;28;20195;-87
2022/01/07 09:06:13;;;;;;;28.27;20.80;;;;;;;3.93;70.46;92997.94;5008821;28;20239;-86
2022/01/07 09:08:39;;;;;;;34.10;24.43;;;;;;;4.13;69.99;92989.78;5024536;28;20285;-86
2022/01/07 09:11:05;;;;;;;25.73;19.97;;;;;;;4.25;68.34;92982.81;5009010;28;20230;-86
2022/01/07 09:13:30;;;;;;;22.07;19.80;;;;;;;4.02;69.29;92975.09;5009811;28;20210;-86
2022/01/07 09:15:56;;;;;;;20.13;17.13;;;;;;;4.30;68.79;92993.22;5008450;28;20235;-86
2022/01/07 09:18:21;;;;;;;19.30;17.27;;;;;;;4.40;67.67;92973.53;5008970;28;20199;-87
2022/01/07 09:20:48;;;;;;;18.83;16.40;;;;;;;4.49;67.64;92985.03;5008888;28;20364;-83
2022/01/07 09:23:14;;;;;;;15.80;14.37;;;;;;;4.50;67.22;92991.78;5007760;28;20947;-85
2022/01/07 09:25:41;;;;;;;17.50;15.63;;;;;;;4.42;67.13;92979.22;5008097;28;20270;-86
2022/01/07 09:28:08;;;;;;;16.77;15.07;;;;;;;4.54;67.42;92989.53;5008280;28;20528;-86
2022/01/07 09:30:35;;;;;;;23.07;14.83;;;;;;;4.49;67.22;92961.78;5009005;28;20227;-86
2022/01/07 09:33:00;;;;;;;15.57;14.07;;;;;;;4.55;67.64;92980.75;5009188;28;20278;-86
2022/01/07 09:35:26;;;;;;;13.03;12.00;;;;;;;4.28;67.13;92985.69;5008038;28;20947;-85
2022/01/07 09:37:53;;;;;;;13.13;12.03;;;;;;;4.75;65.90;92986.25;5008967;28;20191;-86
2022/01/07 09:40:19;;;;;;;12.43;11.67;;;;;;;4.88;64.64;92980.78;5008938;28;20196;-85
2022/01/07 09:43:00;;;;;;;12.43;11.63;;;;;;;5.33;62.89;92984.06;5007479;28;20195;-86
2022/01/07 09:45:28;;;;;;;10.97;10.27;;;;;;;4.86;63.79;92982.81;5006763;28;20187;-83
2022/01/07 09:47:54;;;;;;;12.73;11.73;;;;;;;5.69;61.70;92982.75;5008708;28;20207;-85
2022/01/07 09:50:21;;;;;;;12.63;11.67;;;;;;;5.37;62.32;92959.25;5007561;28;20898;-85
2022/01/07 09:52:46;;;;;;;12.87;11.97;;;;;;;5.61;60.86;92958.03;5007461;28;20219;-86
2022/01/07 09:55:13;;;;;;;14.10;12.97;;;;;;;5.79;61.20;92967.34;5008084;28;20250;-84
2022/01/07 09:57:38;;;;;;;17.03;14.20;;;;;;;6.07;61.07;92974.97;5007795;28;20263;-86
2022/01/07 10:00:06;;;;;;;15.17;13.27;;;;;;;5.31;62.05;92969.81;5023258;28;20176;-85
2022/01/07 10:02:32;;;;;;;15.87;14.33;;;;;;;5.50;62.88;92961.50;5007501;28;20250;-86
2022/01/07 10:04:57;;;;;;;13.10;12.00;;;;;;;5.89;62.02;92970.84;5007300;28;20188;-86
2022/01/07 10:07:25;;;;;;;16.63;15.23;;;;;;;6.05;60.81;92961.47;5008149;28;20263;-86
2022/01/07 10:10:04;;;;;;;16.63;15.03;;;;;;;5.98;61.04;92955.66;5007912;28;20199;-88
2022/01/07 10:12:31;;;;;;;12.00;11.10;;;;;;;5.88;59.44;92971.09;5008321;28;20230;-84
2022/01/07 10:15:16;;;;;;;12.47;11.63;;;;;;;5.58;58.10;92968.09;5008465;28;20251;-85
2022/01/07 10:18:03;;;;;;;11.23;10.53;;;;;;;5.36;59.59;92968.06;5007447;28;20234;-86
2022/01/07 10:20:32;;;;;;;11.83;11.00;;;;;;;5.24;60.81;92958.81;5007206;28;20184;-85
2022/01/07 10:23:07;;;;;;;12.77;11.97;;;;;;;5.63;59.75;92966.34;5007630;28;20195;-86
2022/01/07 10:25:39;;;;;;;11.50;10.73;;;;;;;5.89;58.59;92962.28;5007164;28;20230;-86
2022/01/07 10:28:07;;;;;;;13.60;12.17;;;;;;;5.74;58.68;92959.50;5008544;28;20218;-86
2022/01/07 10:30:45;;;;;;;11.47;10.67;;;;;;;5.49;59.59;92947.00;5007300;28;20227;-86
2022/01/07 10:33:31;;;;;;;10.67;9.97;;;;;;;5.74;57.68;92949.13;5008040;28;20859;-85
2022/01/07 10:36:14;;;;;;;12.13;11.33;;;;;;;5.58;58.69;92939.59;5020366;28;20219;-85
2022/01/07 10:38:50;;;;;;;12.70;11.73;;;;;;;5.43;59.08;92940.19;5028291;28;20300;-86
2022/01/07 10:41:16;;;;;;;12.50;11.60;;;;;;;5.47;59.84;92920.56;5011432;28;20239;-86
2022/01/07 10:43:42;;;;;;;11.90;10.90;;;;;;;5.60;58.61;92932.38;5011941;28;20223;-87
2022/01/07 10:46:07;;;;;;;13.20;12.13;;;;;;;5.52;59.36;92932.78;5008854;28;20273;-88
2022/01/07 10:48:50;;;;;;;13.00;11.97;;;;;;;5.46;59.71;92926.78;5009891;28;20199;-81
2022/01/07 10:51:25;;;;;;;14.13;13.00;;;;;;;5.54;59.26;92930.75;5009927;28;20233;-85
2022/01/07 10:53:54;;;;;;;12.43;11.53;;;;;;;5.61;58.92;92939.13;5010566;28;20192;-84
2022/01/07 10:56:21;;;;;;;13.23;12.23;;;;;;;5.50;59.16;92932.25;5010418;28;20249;-84
2022/01/07 10:58:47;;;;;;;14.07;11.50;;;;;;;5.56;59.09;92936.47;5012374;28;20195;-83
2022/01/07 11:01:21;;;;;;;12.93;12.03;;;;;;;5.53;59.20;92932.56;5011708;28;20250;-85
2022/01/07 11:03:48;;;;;;;13.17;12.27;;;;;;;5.71;58.78;92939.25;5010771;28;20282;-84
2022/01/07 11:06:14;;;;;;;13.10;12.07;;;;;;;6.01;58.67;92934.44;5010989;28;20235;-85
2022/01/07 11:08:40;;;;;;;13.67;12.33;;;;;;;5.93;57.93;92933.06;5011151;28;20238;-84
2022/01/07 11:11:08;;;;;;;13.93;12.73;;;;;;;5.80;58.23;92904.94;5011833;28;20254;-85
2022/01/07 11:13:35;;;;;;;13.77;12.80;;;;;;;5.98;58.26;92930.53;5011237;28;20219;-84
2022/01/07 11:16:05;;;;;;;14.03;12.93;;;;;;;5.86;57.61;92916.16;5009188;28;20222;-85
2022/01/07 11:18:31;;;;;;;12.93;11.93;;;;;;;5.83;56.66;92916.63;5010030;28;20194;-84
2022/01/07 11:20:59;;;;;;;13.30;12.20;;;;;;;5.32;57.87;92878.97;5011803;28;20227;-83
2022/01/07 11:23:25;;;;;;;13.93;12.90;;;;;;;5.60;58.00;92912.47;5011268;28;20195;-85
2022/01/07 11:26:08;;;;;;;14.80;12.27;;;;;;;5.51;58.18;92897.56;5010114;28;20304;-84
2022/01/07 11:28:35;;;;;;;13.73;12.53;;;;;;;5.52;57.60;92893.94;5011016;28;20206;-84
2022/01/07 11:31:13;;;;;;;15.70;14.27;;;;;;;5.51;57.68;92907.94;5009665;28;20220;-86
2022/01/07 11:33:39;;;;;;;14.00;12.60;;;;;;;5.19;58.07;92863.78;5010758;28;20217;-85
2022/01/07 11:36:09;;;;;;;15.60;13.20;;;;;;;5.37;58.92;92906.72;5009301;28;20311;-83